Sayler Park, Ohio
Current Conditions -  °F | °C
As of 1:17 AM on Wednesday 28 Jan 2015 (Local Time) from KI69 Reporting Station
Clear Clear  
Wind Chill: 19°   Ceiling: Unl
Heat Index: 19°   Visibility: 10mi
Dew Point: 14°   Wind: 0mph
Humidity: 80%   Direction: NA
Pressure: 30.25"   Gusts: NA
Location:  39.1192°N, 84.6634°W
Report Text: KI69 280617Z AUTO 00000KT 10SM CLR M07/M10 A3025 RMK AO1
Loading
Personal Weather Stations






























Interactive Weather Map New forecast layout! Learn more

10-Day Weather Forecast

Advertisements
Track Severe Weather on mobile